createdAt,value
2019-03-17T00:02:10.997Z,11.10
2019-03-17T00:05:19.036Z,11.10
2019-03-17T00:08:27.057Z,11.10
2019-03-17T00:11:35.165Z,11.10
2019-03-17T00:14:35.850Z,11.10
2019-03-17T00:17:43.902Z,11.10
2019-03-17T00:20:51.988Z,11.10
2019-03-17T00:24:00.018Z,11.10
2019-03-17T00:27:08.052Z,11.10
2019-03-17T00:30:16.061Z,11.20
2019-03-17T00:33:24.096Z,11.10
2019-03-17T00:36:32.138Z,11.10
2019-03-17T00:39:40.153Z,11.20
2019-03-17T00:42:48.192Z,11.20
2019-03-17T00:45:56.239Z,11.20
2019-03-17T00:49:23.418Z,11.20
2019-03-17T00:52:31.455Z,11.30
2019-03-17T00:55:39.478Z,11.30
2019-03-17T00:58:47.505Z,11.30
2019-03-17T01:01:55.542Z,11.20
2019-03-17T01:05:03.668Z,11.30
2019-03-17T01:08:11.708Z,11.20
2019-03-17T01:11:19.725Z,11.30
2019-03-17T01:14:18.503Z,11.30
2019-03-17T01:17:26.613Z,11.30
2019-03-17T01:20:34.626Z,11.30
2019-03-17T01:23:42.662Z,11.30
2019-03-17T01:26:50.678Z,11.30
2019-03-17T01:29:58.712Z,11.30
2019-03-17T01:33:06.749Z,11.30
2019-03-17T01:36:14.763Z,11.30
2019-03-17T01:39:22.883Z,11.20
2019-03-17T01:42:30.979Z,11.20
2019-03-17T01:45:39.009Z,11.30
2019-03-17T01:48:47.046Z,11.20
2019-03-17T01:51:55.071Z,11.20
2019-03-17T01:55:03.182Z,11.20
2019-03-17T01:58:11.296Z,11.20
2019-03-17T02:01:19.309Z,11.10
2019-03-17T02:04:27.354Z,11.10
2019-03-17T02:07:35.368Z,11.10
2019-03-17T02:10:43.418Z,11.00
2019-03-17T02:13:43.834Z,11.00
2019-03-17T02:16:42.570Z,11.00
2019-03-17T02:19:50.610Z,10.90
2019-03-17T02:22:58.632Z,10.90
2019-03-17T02:26:06.695Z,10.90
2019-03-17T02:29:14.713Z,10.90
2019-03-17T02:32:22.750Z,10.90
2019-03-17T02:35:38.627Z,10.90
2019-03-17T02:38:40.546Z,10.90
2019-03-17T02:41:48.610Z,10.80
2019-03-17T02:44:56.716Z,10.90
2019-03-17T02:48:04.847Z,10.90
2019-03-17T02:51:14.481Z,10.90
2019-03-17T02:54:22.505Z,10.90
2019-03-17T02:57:30.545Z,10.90
2019-03-17T03:00:38.577Z,10.90
2019-03-17T03:03:46.596Z,10.90
2019-03-17T03:06:54.659Z,10.90
2019-03-17T03:10:02.700Z,11.00
2019-03-17T03:13:10.725Z,11.00
2019-03-17T03:16:18.761Z,11.00
2019-03-17T03:19:26.789Z,11.00
2019-03-17T03:22:34.837Z,11.00
2019-03-17T03:25:42.932Z,11.00
2019-03-17T03:28:50.961Z,11.00
2019-03-17T03:31:58.982Z,11.00
2019-03-17T03:35:26.300Z,11.00
2019-03-17T03:38:34.399Z,11.10
2019-03-17T03:41:44.050Z,11.10
2019-03-17T03:44:52.153Z,11.10
2019-03-17T03:48:01.810Z,11.10
2019-03-17T03:51:09.855Z,11.10
2019-03-17T03:54:17.968Z,11.00
2019-03-17T03:57:26.082Z,11.10
2019-03-17T04:00:34.190Z,11.10
2019-03-17T04:03:42.381Z,11.00
2019-03-17T04:06:50.413Z,11.10
2019-03-17T04:09:58.447Z,11.00
2019-03-17T04:13:06.545Z,11.00
2019-03-17T04:16:07.158Z,11.00
2019-03-17T04:19:05.918Z,11.00
2019-03-17T04:22:14.030Z,11.00
2019-03-17T04:25:22.106Z,11.00
2019-03-17T04:28:30.146Z,11.00
2019-03-17T04:31:38.181Z,11.00
2019-03-17T04:34:46.193Z,11.00
2019-03-17T04:37:54.238Z,11.00
2019-03-17T04:41:02.277Z,11.00
2019-03-17T04:44:20.426Z,11.00
2019-03-17T04:47:20.033Z,11.00
2019-03-17T04:50:28.049Z,10.90
2019-03-17T04:53:36.085Z,10.90
2019-03-17T04:56:44.121Z,10.70
2019-03-17T04:59:52.141Z,10.70
2019-03-17T05:03:00.177Z,10.60
2019-03-17T05:06:08.190Z,10.50
2019-03-17T05:09:16.230Z,10.50
2019-03-17T05:12:24.265Z,10.50
2019-03-17T05:15:23.338Z,10.50
2019-03-17T05:18:31.373Z,10.50
2019-03-17T05:21:39.424Z,10.50
2019-03-17T05:24:47.510Z,10.50
2019-03-17T05:27:55.542Z,10.50
2019-03-17T05:31:03.565Z,10.50
2019-03-17T05:34:11.613Z,10.50
2019-03-17T05:37:19.658Z,10.40
2019-03-17T05:40:27.681Z,10.40
2019-03-17T05:43:35.721Z,10.40
2019-03-17T05:46:43.756Z,10.30
2019-03-17T05:49:51.777Z,10.30
2019-03-17T05:52:59.822Z,10.30
2019-03-17T05:56:07.873Z,10.30
2019-03-17T05:59:15.917Z,10.30
2019-03-17T06:02:23.943Z,10.20
2019-03-17T06:05:31.958Z,10.20
2019-03-17T06:08:39.998Z,10.30
2019-03-17T06:11:48.025Z,10.20
2019-03-17T06:14:48.457Z,10.20
2019-03-17T06:17:49.049Z,10.10
2019-03-17T06:20:47.689Z,10.10
2019-03-17T06:23:55.721Z,10.10
2019-03-17T06:27:03.741Z,10.10
2019-03-17T06:30:11.878Z,10.00
2019-03-17T06:33:19.919Z,10.00
2019-03-17T06:36:27.924Z,9.90
2019-03-17T06:39:35.953Z,9.80
2019-03-17T06:42:43.986Z,9.80
2019-03-17T06:45:51.997Z,9.80
2019-03-17T06:49:00.030Z,9.80
2019-03-17T06:52:08.122Z,9.80
2019-03-17T06:55:16.153Z,9.70
2019-03-17T06:58:24.189Z,9.80
2019-03-17T07:01:32.197Z,9.70
2019-03-17T07:04:40.227Z,9.70
2019-03-17T07:07:48.257Z,9.70
2019-03-17T07:10:56.269Z,9.70
2019-03-17T07:13:55.240Z,9.70
2019-03-17T07:17:03.253Z,9.80
2019-03-17T07:20:11.306Z,9.70
2019-03-17T07:23:19.342Z,9.70
2019-03-17T07:26:27.348Z,9.70
2019-03-17T07:29:35.388Z,9.70
2019-03-17T07:33:02.578Z,9.70
2019-03-17T07:36:10.594Z,9.80
2019-03-17T07:39:18.617Z,9.70
2019-03-17T07:42:26.633Z,9.70
2019-03-17T07:45:34.667Z,9.70
2019-03-17T07:48:42.701Z,9.80
2019-03-17T07:51:50.713Z,9.80
2019-03-17T07:54:58.745Z,9.80
2019-03-17T07:58:06.766Z,9.70
2019-03-17T08:01:14.879Z,9.80
2019-03-17T08:04:22.909Z,9.70
2019-03-17T08:07:30.925Z,9.70
2019-03-17T08:10:38.961Z,9.80
2019-03-17T08:13:39.389Z,9.70
2019-03-17T08:16:38.001Z,9.40
2019-03-17T08:19:46.038Z,8.80
2019-03-17T08:22:54.052Z,8.30
2019-03-17T08:26:02.081Z,7.90
2019-03-17T08:29:10.122Z,7.50
2019-03-17T08:32:18.134Z,7.80
2019-03-17T08:35:26.169Z,7.40
2019-03-17T08:38:34.185Z,7.50
2019-03-17T08:41:42.297Z,7.30
2019-03-17T08:44:50.335Z,7.30
2019-03-17T08:47:58.780Z,7.40
2019-03-17T08:51:08.081Z,7.10
2019-03-17T08:54:16.116Z,7.20
2019-03-17T08:57:24.137Z,7.30
2019-03-17T09:00:32.246Z,7.30
2019-03-17T09:03:40.257Z,7.60
2019-03-17T09:06:48.297Z,7.50
2019-03-17T09:09:56.329Z,7.40
2019-03-17T09:13:04.488Z,7.70
2019-03-17T09:16:04.534Z,7.80
2019-03-17T09:19:12.568Z,7.80
2019-03-17T09:22:20.577Z,7.60
2019-03-17T09:25:28.605Z,7.90
2019-03-17T09:28:36.625Z,8.10
2019-03-17T09:31:44.674Z,8.00
2019-03-17T09:34:52.703Z,7.90
2019-03-17T09:38:00.714Z,8.00
2019-03-17T09:41:08.749Z,7.90
2019-03-17T09:44:16.766Z,8.00
2019-03-17T09:47:24.802Z,8.20
2019-03-17T09:50:32.842Z,8.00
2019-03-17T09:53:40.858Z,8.20
2019-03-17T09:56:48.888Z,8.10
2019-03-17T09:59:56.925Z,8.10
2019-03-17T10:03:04.950Z,8.20
2019-03-17T10:06:13.063Z,8.30
2019-03-17T10:09:21.079Z,8.10
2019-03-17T10:12:29.114Z,8.30
2019-03-17T10:15:28.208Z,8.40
2019-03-17T10:18:36.224Z,8.50
2019-03-17T10:21:44.257Z,8.40
2019-03-17T10:24:52.273Z,8.70
2019-03-17T10:28:00.310Z,8.60
2019-03-17T10:31:08.336Z,8.70
2019-03-17T10:34:16.350Z,8.70
2019-03-17T10:37:24.384Z,8.80
2019-03-17T10:43:46.078Z,8.70
2019-03-17T10:46:54.111Z,8.80
2019-03-17T10:50:02.131Z,8.80
2019-03-17T10:53:10.240Z,8.90
2019-03-17T10:56:18.354Z,9.00
2019-03-17T10:59:27.644Z,9.10
2019-03-17T11:02:36.105Z,9.00
2019-03-17T11:05:44.201Z,9.00
2019-03-17T11:08:52.212Z,9.20
2019-03-17T11:12:00.246Z,9.20
2019-03-17T11:14:58.657Z,9.40
2019-03-17T11:18:06.769Z,9.30
2019-03-17T11:21:14.797Z,9.20
2019-03-17T11:24:22.818Z,9.30
2019-03-17T11:27:30.841Z,9.10
2019-03-17T11:30:38.857Z,9.20
2019-03-17T11:33:46.914Z,9.10
2019-03-17T11:36:54.998Z,9.00
2019-03-17T11:40:03.086Z,9.10
2019-03-17T11:43:11.121Z,9.20
2019-03-17T11:46:38.314Z,9.40
2019-03-17T11:50:05.489Z,9.40
2019-03-17T11:53:13.517Z,9.50
2019-03-17T11:56:21.549Z,9.50
2019-03-17T11:59:29.566Z,9.50
2019-03-17T12:02:37.597Z,9.50
2019-03-17T12:05:45.605Z,9.30
2019-03-17T12:08:53.641Z,9.40
2019-03-17T12:12:01.674Z,9.30
2019-03-17T12:15:00.619Z,8.60
2019-03-17T12:18:27.861Z,8.10
2019-03-17T12:21:35.872Z,8.00
2019-03-17T12:24:43.901Z,8.00
2019-03-17T12:27:51.929Z,8.20
2019-03-17T12:31:01.943Z,8.30
2019-03-17T12:34:09.676Z,8.30
2019-03-17T12:37:17.712Z,8.70
2019-03-17T12:40:25.735Z,9.10
2019-03-17T12:43:33.757Z,9.30
2019-03-17T12:46:41.773Z,9.40
2019-03-17T12:49:49.806Z,9.80
2019-03-17T12:52:57.837Z,9.70
2019-03-17T12:56:25.014Z,9.70
2019-03-17T12:59:33.041Z,9.80
2019-03-17T13:02:41.087Z,10.30
2019-03-17T13:05:49.114Z,10.20
2019-03-17T13:08:57.156Z,10.50
2019-03-17T13:12:05.180Z,10.70
2019-03-17T13:15:03.929Z,10.80
2019-03-17T13:18:11.957Z,10.70
2019-03-17T13:21:19.981Z,10.40
2019-03-17T13:24:28.023Z,10.20
2019-03-17T13:27:36.034Z,9.80
2019-03-17T13:30:44.069Z,9.70
2019-03-17T13:33:52.110Z,9.30
2019-03-17T13:37:00.121Z,9.20
2019-03-17T13:40:29.959Z,8.90
2019-03-17T13:43:37.906Z,8.50
2019-03-17T13:46:45.925Z,7.70
2019-03-17T13:49:53.966Z,7.60
2019-03-17T13:53:02.010Z,7.80
2019-03-17T13:56:10.023Z,7.50
2019-03-17T13:59:18.061Z,7.50
2019-03-17T14:02:26.077Z,7.60
2019-03-17T14:05:34.108Z,7.60
2019-03-17T14:08:42.137Z,7.70
2019-03-17T14:11:50.162Z,7.80
2019-03-17T14:14:49.073Z,8.10
2019-03-17T14:17:57.089Z,8.10
2019-03-17T14:21:05.140Z,8.20
2019-03-17T14:24:13.233Z,8.20
2019-03-17T14:27:21.253Z,8.10
2019-03-17T14:30:29.302Z,8.10
2019-03-17T14:33:37.342Z,7.50
2019-03-17T14:36:45.353Z,6.70
2019-03-17T14:39:53.382Z,6.60
2019-03-17T14:43:01.392Z,6.90
2019-03-17T14:46:09.427Z,7.00
2019-03-17T14:49:17.464Z,7.00
2019-03-17T14:52:25.477Z,7.10
2019-03-17T14:55:33.509Z,7.20
2019-03-17T14:58:41.529Z,7.40
2019-03-17T15:01:49.558Z,7.60
2019-03-17T15:04:57.592Z,7.80
2019-03-17T15:08:05.606Z,8.20
2019-03-17T15:11:13.637Z,8.40
2019-03-17T15:14:12.760Z,8.80
2019-03-17T15:17:20.777Z,9.10
2019-03-17T15:20:28.813Z,9.10
2019-03-17T15:23:36.829Z,9.30
2019-03-17T15:26:44.866Z,9.40
2019-03-17T15:29:52.897Z,8.90
2019-03-17T15:33:00.923Z,8.90
2019-03-17T15:36:08.962Z,8.40
2019-03-17T15:39:16.982Z,8.40
2019-03-17T15:42:25.013Z,8.50
2019-03-17T15:45:33.116Z,8.30
2019-03-17T15:48:41.133Z,8.40
2019-03-17T15:51:49.161Z,8.50
2019-03-17T15:54:57.198Z,8.80
2019-03-17T15:58:24.378Z,9.30
2019-03-17T16:01:32.413Z,9.20
2019-03-17T16:04:40.441Z,8.90
2019-03-17T16:11:31.017Z,9.90
2019-03-17T16:14:24.845Z,9.50
2019-03-17T16:17:25.441Z,9.30
2019-03-17T16:20:24.101Z,9.10
2019-03-17T16:23:32.118Z,9.40
2019-03-17T16:26:40.158Z,9.70
2019-03-17T16:29:48.249Z,10.00
2019-03-17T16:36:30.516Z,10.50
2019-03-17T16:39:38.541Z,10.50
2019-03-17T16:42:46.577Z,10.70
2019-03-17T16:45:54.613Z,10.20
2019-03-17T16:49:02.629Z,10.40
2019-03-17T16:52:10.665Z,9.90
2019-03-17T16:55:18.754Z,10.00
2019-03-17T16:58:26.794Z,9.70
2019-03-17T17:01:34.821Z,9.40
2019-03-17T17:04:42.839Z,9.10
2019-03-17T17:07:50.869Z,9.10
2019-03-17T17:11:00.640Z,8.90
2019-03-17T17:14:00.982Z,8.90
2019-03-17T17:16:59.578Z,8.80
2019-03-17T17:20:08.508Z,8.70
2019-03-17T17:23:16.543Z,8.50
2019-03-17T17:26:36.393Z,8.60
2019-03-17T17:29:53.480Z,8.40
2019-03-17T17:33:01.576Z,8.30
2019-03-17T17:36:09.589Z,8.20
2019-03-17T17:39:17.629Z,8.10
2019-03-17T17:42:25.664Z,8.10
2019-03-17T17:45:33.676Z,8.00
2019-03-17T17:48:41.705Z,7.90
2019-03-17T17:51:49.717Z,8.00
2019-03-17T17:54:58.557Z,7.90
2019-03-17T17:57:57.401Z,8.00
2019-03-17T18:01:05.413Z,7.90
2019-03-17T18:04:13.445Z,7.90
2019-03-17T18:07:21.456Z,7.80
2019-03-17T18:10:29.497Z,7.70
2019-03-17T18:13:28.365Z,7.70
2019-03-17T18:16:36.381Z,7.70
2019-03-17T18:19:44.414Z,7.70
2019-03-17T18:22:52.431Z,7.60
2019-03-17T18:26:00.461Z,7.60
2019-03-17T18:29:08.490Z,7.60
2019-03-17T18:32:16.510Z,7.50
2019-03-17T18:35:24.613Z,7.40
2019-03-17T18:38:32.633Z,7.50
2019-03-17T18:41:40.665Z,7.40
2019-03-17T18:44:48.709Z,7.50
2019-03-17T18:47:57.762Z,7.50
2019-03-17T18:51:06.445Z,7.50
2019-03-17T18:54:14.477Z,7.50
2019-03-17T18:57:22.489Z,7.50
2019-03-17T19:00:30.526Z,7.50
2019-03-17T19:03:38.543Z,7.60
2019-03-17T19:06:46.573Z,7.60
2019-03-17T19:09:54.605Z,7.60
2019-03-17T19:13:03.876Z,7.50
2019-03-17T19:16:03.380Z,7.50
2019-03-17T19:19:11.397Z,7.50
2019-03-17T19:22:19.433Z,7.40
2019-03-17T19:25:27.471Z,7.50
2019-03-17T19:28:35.544Z,7.40
2019-03-17T19:31:43.578Z,7.40
2019-03-17T19:34:51.588Z,7.20
2019-03-17T19:38:18.802Z,7.30
2019-03-17T19:41:26.834Z,7.30
2019-03-17T19:44:34.854Z,7.20
2019-03-17T19:47:42.889Z,7.20
2019-03-17T19:50:50.916Z,7.20
2019-03-17T19:53:58.930Z,7.00
2019-03-17T19:57:06.961Z,7.00
2019-03-17T20:00:34.333Z,7.00
2019-03-17T20:03:42.349Z,7.00
2019-03-17T20:06:50.386Z,7.00
2019-03-17T20:09:58.397Z,6.70
2019-03-17T20:13:11.776Z,7.00
2019-03-17T20:16:07.147Z,7.10
2019-03-17T20:19:34.322Z,7.00
2019-03-17T20:26:16.525Z,7.00
2019-03-17T20:29:24.553Z,7.00
2019-03-17T20:32:32.585Z,7.00
2019-03-17T20:35:40.597Z,6.90
2019-03-17T20:38:48.633Z,6.80
2019-03-17T20:41:56.647Z,6.90
2019-03-17T20:45:04.872Z,6.90
2019-03-17T20:48:12.949Z,6.90
2019-03-17T20:51:22.638Z,6.90
2019-03-17T20:54:30.673Z,6.90
2019-03-17T20:57:38.793Z,6.80
2019-03-17T21:00:46.816Z,6.90
2019-03-17T21:03:35.617Z,6.80
2019-03-17T21:06:43.637Z,6.80
2019-03-17T21:09:51.718Z,6.80
2019-03-17T21:12:59.777Z,6.70
2019-03-17T21:15:58.561Z,6.70
2019-03-17T21:19:06.592Z,6.60
2019-03-17T21:22:14.606Z,6.60
2019-03-17T21:25:22.637Z,6.60
2019-03-17T21:28:30.696Z,6.50
2019-03-17T21:31:38.772Z,6.50
2019-03-17T21:34:46.869Z,6.60
2019-03-17T21:37:54.888Z,6.60
2019-03-17T21:41:07.274Z,6.50
2019-03-17T21:44:12.645Z,6.50
2019-03-17T21:47:20.665Z,6.50
2019-03-17T21:50:28.693Z,6.50
2019-03-17T21:53:36.709Z,6.40
2019-03-17T21:56:44.750Z,6.40
2019-03-17T21:59:52.839Z,6.40
2019-03-17T22:03:00.925Z,6.40
2019-03-17T22:06:08.966Z,6.30
2019-03-17T22:09:17.468Z,6.20
2019-03-17T22:12:07.473Z,6.20
2019-03-17T22:15:07.875Z,6.20
2019-03-17T22:18:06.358Z,6.20
2019-03-17T22:21:14.404Z,6.20
2019-03-17T22:24:22.413Z,6.10
2019-03-17T22:27:30.450Z,6.10
2019-03-17T22:30:38.477Z,6.10
2019-03-17T22:33:46.493Z,6.10
2019-03-17T22:36:54.526Z,5.90
2019-03-17T22:40:02.570Z,6.00
2019-03-17T22:43:10.580Z,6.00
2019-03-17T22:46:18.617Z,6.00
2019-03-17T22:49:26.629Z,5.90
2019-03-17T22:52:34.665Z,5.90
2019-03-17T22:55:42.693Z,5.90
2019-03-17T22:58:50.711Z,5.90
2019-03-17T23:01:58.822Z,5.80
2019-03-17T23:05:06.930Z,5.90
2019-03-17T23:08:14.948Z,5.90
2019-03-17T23:11:22.985Z,5.90
2019-03-17T23:14:23.411Z,5.80
2019-03-17T23:17:22.141Z,5.80
2019-03-17T23:20:30.173Z,5.70
2019-03-17T23:23:39.519Z,5.70
2019-03-17T23:26:47.916Z,5.60
2019-03-17T23:29:55.953Z,5.60
2019-03-17T23:33:23.213Z,5.50
2019-03-17T23:36:31.243Z,5.50
2019-03-17T23:39:39.250Z,5.40
2019-03-17T23:42:47.288Z,5.40
2019-03-17T23:45:55.334Z,5.40
2019-03-17T23:49:03.353Z,5.40
2019-03-17T23:52:11.385Z,5.30
2019-03-17T23:55:19.398Z,5.40
2019-03-17T23:58:27.429Z,5.30
